sensor_id;sensor_type;location;lat;lon;timestamp;pressure;altitude;pressure_sealevel;temperature;humidity
4273;BME280;63887;53.656;9.810;2023-03-25T00:01:07;99959.41;;;8.96;90.03
4273;BME280;63887;53.656;9.810;2023-03-25T00:03:38;99951.75;;;8.79;91.39
4273;BME280;63887;53.656;9.810;2023-03-25T00:06:07;99952.31;;;8.84;90.82
4273;BME280;63887;53.656;9.810;2023-03-25T00:08:35;99952.59;;;8.93;90.76
4273;BME280;63887;53.656;9.810;2023-03-25T00:11:03;99951.47;;;9.12;90.12
4273;BME280;63887;53.656;9.810;2023-03-25T00:13:31;99941.75;;;9.14;89.62
4273;BME280;63887;53.656;9.810;2023-03-25T00:15:58;99949.88;;;8.81;91.16
4273;BME280;63887;53.656;9.810;2023-03-25T00:18:28;99948.56;;;8.88;90.29
4273;BME280;63887;53.656;9.810;2023-03-25T00:20:58;99950.97;;;9.19;87.49
4273;BME280;63887;53.656;9.810;2023-03-25T00:23:26;99944.38;;;9.00;88.96
4273;BME280;63887;53.656;9.810;2023-03-25T00:25:52;99946.53;;;8.79;90.25
4273;BME280;63887;53.656;9.810;2023-03-25T00:28:25;99947.81;;;8.72;90.39
4273;BME280;63887;53.656;9.810;2023-03-25T00:30:52;99942.75;;;8.69;90.40
4273;BME280;63887;53.656;9.810;2023-03-25T00:33:19;99942.75;;;8.69;90.12
4273;BME280;63887;53.656;9.810;2023-03-25T00:35:50;99931.28;;;8.85;89.85
4273;BME280;63887;53.656;9.810;2023-03-25T00:38:19;99929.41;;;8.87;89.41
4273;BME280;63887;53.656;9.810;2023-03-25T00:40:45;99929.91;;;8.94;90.10
4273;BME280;63887;53.656;9.810;2023-03-25T00:43:12;99926.88;;;9.14;88.10
4273;BME280;63887;53.656;9.810;2023-03-25T00:45:39;99923.44;;;9.14;86.51
4273;BME280;63887;53.656;9.810;2023-03-25T00:48:06;99928.38;;;9.18;86.73
4273;BME280;63887;53.656;9.810;2023-03-25T00:50:32;99916.31;;;9.30;86.44
4273;BME280;63887;53.656;9.810;2023-03-25T00:53:00;99928.97;;;9.09;87.57
4273;BME280;63887;53.656;9.810;2023-03-25T00:55:27;99929.19;;;9.33;85.99
4273;BME280;63887;53.656;9.810;2023-03-25T00:57:54;99913.63;;;9.03;87.17
4273;BME280;63887;53.656;9.810;2023-03-25T01:00:20;99921.34;;;9.19;86.93
4273;BME280;63887;53.656;9.810;2023-03-25T01:02:48;99929.13;;;9.06;87.20
4273;BME280;63887;53.656;9.810;2023-03-25T01:05:18;99920.91;;;9.26;86.96
4273;BME280;63887;53.656;9.810;2023-03-25T01:07:45;99921.34;;;9.19;86.51
4273;BME280;63887;53.656;9.810;2023-03-25T01:10:15;99921.66;;;9.14;86.60
4273;BME280;63887;53.656;9.810;2023-03-25T01:12:42;99917.72;;;9.21;86.77
4273;BME280;63887;53.656;9.810;2023-03-25T01:15:09;99921.09;;;9.09;86.71
4273;BME280;63887;53.656;9.810;2023-03-25T01:17:36;99925.28;;;9.26;86.57
4273;BME280;63887;53.656;9.810;2023-03-25T01:20:03;99919.44;;;9.08;87.14
4273;BME280;63887;53.656;9.810;2023-03-25T01:22:33;99915.59;;;9.14;87.11
4273;BME280;63887;53.656;9.810;2023-03-25T01:25:00;99916.03;;;9.20;86.66
4273;BME280;63887;53.656;9.810;2023-03-25T01:27:27;99916.84;;;9.35;85.36
4273;BME280;63887;53.656;9.810;2023-03-25T01:29:54;99910.34;;;9.28;86.27
4273;BME280;63887;53.656;9.810;2023-03-25T01:32:21;99909.06;;;9.48;85.46
4273;BME280;63887;53.656;9.810;2023-03-25T01:34:47;99901.22;;;9.48;85.07
4273;BME280;63887;53.656;9.810;2023-03-25T01:37:14;99899.19;;;9.39;85.69
4273;BME280;63887;53.656;9.810;2023-03-25T01:39:42;99893.25;;;9.22;86.67
4273;BME280;63887;53.656;9.810;2023-03-25T01:42:09;99887.78;;;9.40;85.70
4273;BME280;63887;53.656;9.810;2023-03-25T01:45:14;99888.25;;;9.32;85.79
4273;BME280;63887;53.656;9.810;2023-03-25T01:47:44;99895.59;;;9.54;85.62
4273;BME280;63887;53.656;9.810;2023-03-25T01:50:13;99883.88;;;9.33;86.12
4273;BME280;63887;53.656;9.810;2023-03-25T01:52:41;99885.53;;;9.34;85.51
4273;BME280;63887;53.656;9.810;2023-03-25T01:55:10;99886.00;;;9.40;86.04
4273;BME280;63887;53.656;9.810;2023-03-25T01:57:39;99891.16;;;9.42;85.78
4273;BME280;63887;53.656;9.810;2023-03-25T02:00:11;99881.00;;;9.23;86.25
4273;BME280;63887;53.656;9.810;2023-03-25T02:02:40;99878.22;;;9.12;87.25
4273;BME280;63887;53.656;9.810;2023-03-25T02:05:09;99873.06;;;9.51;85.51
4273;BME280;63887;53.656;9.810;2023-03-25T02:07:40;99873.59;;;9.30;86.21
4273;BME280;63887;53.656;9.810;2023-03-25T02:10:13;99876.13;;;9.31;86.42
4273;BME280;63887;53.656;9.810;2023-03-25T02:12:40;99875.50;;;9.54;84.65
4273;BME280;63887;53.656;9.810;2023-03-25T02:15:10;99879.06;;;9.53;84.52
4273;BME280;63887;53.656;9.810;2023-03-25T02:17:50;99871.66;;;9.19;85.84
4273;BME280;63887;53.656;9.810;2023-03-25T02:29:54;99866.44;;;9.73;83.01
4273;BME280;63887;53.656;9.810;2023-03-25T02:32:36;99867.81;;;9.51;83.41
4273;BME280;63887;53.656;9.810;2023-03-25T02:35:23;99863.19;;;9.42;83.69
4273;BME280;63887;53.656;9.810;2023-03-25T02:38:06;99853.91;;;9.24;84.68
4273;BME280;63887;53.656;9.810;2023-03-25T02:40:37;99858.09;;;9.26;84.49
4273;BME280;63887;53.656;9.810;2023-03-25T02:43:11;99851.47;;;9.07;85.60
4273;BME280;63887;53.656;9.810;2023-03-25T02:45:42;99857.59;;;9.34;84.15
4273;BME280;63887;53.656;9.810;2023-03-25T02:48:13;99856.56;;;9.37;83.66
4273;BME280;63887;53.656;9.810;2023-03-25T02:50:44;99849.25;;;9.15;84.44
4273;BME280;63887;53.656;9.810;2023-03-25T02:53:16;99853.50;;;9.30;84.39
4273;BME280;63887;53.656;9.810;2023-03-25T02:55:45;99847.31;;;9.31;84.36
4273;BME280;63887;53.656;9.810;2023-03-25T02:58:16;99839.75;;;9.00;85.45
4273;BME280;63887;53.656;9.810;2023-03-25T03:00:43;99839.91;;;9.11;85.12
4273;BME280;63887;53.656;9.810;2023-03-25T03:03:11;99844.38;;;9.23;84.02
4273;BME280;63887;53.656;9.810;2023-03-25T03:05:39;99843.44;;;9.24;83.94
4273;BME280;63887;53.656;9.810;2023-03-25T03:08:28;99840.81;;;9.51;82.78
4273;BME280;63887;53.656;9.810;2023-03-25T03:11:03;99839.78;;;9.26;83.50
4273;BME280;63887;53.656;9.810;2023-03-25T03:13:46;99837.56;;;9.06;84.37
4273;BME280;63887;53.656;9.810;2023-03-25T03:16:23;99844.69;;;9.04;85.05
4273;BME280;63887;53.656;9.810;2023-03-25T03:19:01;99841.06;;;9.34;83.77
4273;BME280;63887;53.656;9.810;2023-03-25T03:21:35;99840.31;;;9.32;83.88
4273;BME280;63887;53.656;9.810;2023-03-25T03:24:09;99837.63;;;9.19;83.89
4273;BME280;63887;53.656;9.810;2023-03-25T03:26:41;99838.84;;;9.27;83.97
4273;BME280;63887;53.656;9.810;2023-03-25T03:29:14;99837.09;;;9.14;84.26
4273;BME280;63887;53.656;9.810;2023-03-25T03:31:45;99832.63;;;9.02;85.15
4273;BME280;63887;53.656;9.810;2023-03-25T03:34:19;99837.22;;;8.98;85.52
4273;BME280;63887;53.656;9.810;2023-03-25T03:36:49;99837.06;;;9.28;82.76
4273;BME280;63887;53.656;9.810;2023-03-25T03:39:22;99833.47;;;9.43;82.56
4273;BME280;63887;53.656;9.810;2023-03-25T03:41:52;99838.78;;;9.15;84.48
4273;BME280;63887;53.656;9.810;2023-03-25T03:44:23;99838.69;;;9.02;84.20
4273;BME280;63887;53.656;9.810;2023-03-25T03:46:54;99828.06;;;8.91;85.13
4273;BME280;63887;53.656;9.810;2023-03-25T03:49:27;99837.09;;;9.14;83.80
4273;BME280;63887;53.656;9.810;2023-03-25T03:51:57;99831.59;;;9.04;84.17
4273;BME280;63887;53.656;9.810;2023-03-25T03:54:30;99825.81;;;8.99;84.05
4273;BME280;63887;53.656;9.810;2023-03-25T03:57:00;99829.59;;;8.95;84.48
4273;BME280;63887;53.656;9.810;2023-03-25T03:59:36;99828.13;;;9.04;84.66
4273;BME280;63887;53.656;9.810;2023-03-25T04:02:10;99826.00;;;9.10;84.00
4273;BME280;63887;53.656;9.810;2023-03-25T04:04:39;99822.94;;;9.31;82.84
4273;BME280;63887;53.656;9.810;2023-03-25T04:07:11;99824.41;;;9.08;84.05
4273;BME280;63887;53.656;9.810;2023-03-25T04:09:49;99822.28;;;9.00;84.44
4273;BME280;63887;53.656;9.810;2023-03-25T04:12:21;99827.69;;;9.38;83.26
4273;BME280;63887;53.656;9.810;2023-03-25T04:14:49;99827.91;;;8.80;85.28
4273;BME280;63887;53.656;9.810;2023-03-25T04:17:16;99829.41;;;8.84;85.67
4273;BME280;63887;53.656;9.810;2023-03-25T04:19:42;99828.63;;;8.96;85.75
4273;BME280;63887;53.656;9.810;2023-03-25T04:22:14;99828.63;;;9.10;84.50
4273;BME280;63887;53.656;9.810;2023-03-25T04:24:43;99830.75;;;9.04;84.92
4273;BME280;63887;53.656;9.810;2023-03-25T04:27:14;99832.78;;;9.27;84.10
4273;BME280;63887;53.656;9.810;2023-03-25T04:29:41;99844.84;;;9.15;84.44
4273;BME280;63887;53.656;9.810;2023-03-25T04:32:10;99851.56;;;9.19;85.00
4273;BME280;63887;53.656;9.810;2023-03-25T04:34:36;99850.72;;;9.19;85.47
4273;BME280;63887;53.656;9.810;2023-03-25T04:37:03;99872.72;;;8.88;88.97
4273;BME280;63887;53.656;9.810;2023-03-25T04:39:30;99867.88;;;8.68;90.15
4273;BME280;63887;53.656;9.810;2023-03-25T04:41:58;99877.59;;;8.65;91.27
4273;BME280;63887;53.656;9.810;2023-03-25T04:44:27;99877.94;;;8.45;92.58
4273;BME280;63887;53.656;9.810;2023-03-25T04:46:54;99870.00;;;8.47;92.99
4273;BME280;63887;53.656;9.810;2023-03-25T04:49:22;99879.81;;;8.13;94.94
4273;BME280;63887;53.656;9.810;2023-03-25T04:51:50;99877.44;;;8.24;95.08
4273;BME280;63887;53.656;9.810;2023-03-25T04:54:17;99879.97;;;7.96;95.52
4273;BME280;63887;53.656;9.810;2023-03-25T04:56:43;99880.16;;;7.93;96.85
4273;BME280;63887;53.656;9.810;2023-03-25T04:59:13;99874.19;;;7.91;96.58
4273;BME280;63887;53.656;9.810;2023-03-25T05:01:40;99866.28;;;8.06;97.01
4273;BME280;63887;53.656;9.810;2023-03-25T05:04:10;99871.59;;;8.05;96.49
4273;BME280;63887;53.656;9.810;2023-03-25T05:06:39;99875.56;;;8.26;95.31
4273;BME280;63887;53.656;9.810;2023-03-25T05:09:10;99874.78;;;8.40;95.27
4273;BME280;63887;53.656;9.810;2023-03-25T05:11:37;99867.31;;;8.62;94.22
4273;BME280;63887;53.656;9.810;2023-03-25T05:14:06;99848.25;;;8.60;93.84
4273;BME280;63887;53.656;9.810;2023-03-25T05:16:34;99846.41;;;8.34;95.17
4273;BME280;63887;53.656;9.810;2023-03-25T05:19:01;99841.22;;;8.32;95.45
4273;BME280;63887;53.656;9.810;2023-03-25T05:21:28;99846.78;;;8.12;95.87
4273;BME280;63887;53.656;9.810;2023-03-25T05:23:55;99845.56;;;8.18;94.65
4273;BME280;63887;53.656;9.810;2023-03-25T05:26:22;99846.13;;;8.39;92.91
4273;BME280;63887;53.656;9.810;2023-03-25T05:28:49;99842.03;;;8.34;93.09
4273;BME280;63887;53.656;9.810;2023-03-25T05:31:16;99846.59;;;8.45;93.61
4273;BME280;63887;53.656;9.810;2023-03-25T05:33:44;99848.94;;;8.35;94.70
4273;BME280;63887;53.656;9.810;2023-03-25T05:36:11;99847.81;;;8.10;94.70
4273;BME280;63887;53.656;9.810;2023-03-25T05:38:38;99848.78;;;8.23;95.08
4273;BME280;63887;53.656;9.810;2023-03-25T05:41:06;99849.13;;;8.17;95.12
4273;BME280;63887;53.656;9.810;2023-03-25T05:43:35;99852.66;;;8.46;93.57
4273;BME280;63887;53.656;9.810;2023-03-25T05:46:01;99857.66;;;8.20;95.17
4273;BME280;63887;53.656;9.810;2023-03-25T05:48:28;99860.63;;;8.28;94.24
4273;BME280;63887;53.656;9.810;2023-03-25T05:50:58;99860.13;;;8.52;93.15
4273;BME280;63887;53.656;9.810;2023-03-25T05:53:25;99862.66;;;8.53;93.57
4273;BME280;63887;53.656;9.810;2023-03-25T05:55:51;99865.34;;;8.38;93.49
4273;BME280;63887;53.656;9.810;2023-03-25T05:58:18;99876.94;;;8.32;94.44
4273;BME280;63887;53.656;9.810;2023-03-25T06:00:44;99862.63;;;8.39;92.99
4273;BME280;63887;53.656;9.810;2023-03-25T06:03:12;99864.34;;;8.54;92.54
4273;BME280;63887;53.656;9.810;2023-03-25T06:05:39;99868.34;;;8.16;93.85
4273;BME280;63887;53.656;9.810;2023-03-25T06:08:07;99863.69;;;8.65;92.48
4273;BME280;63887;53.656;9.810;2023-03-25T06:10:34;99872.00;;;8.27;93.36
4273;BME280;63887;53.656;9.810;2023-03-25T06:13:00;99868.81;;;8.66;91.84
4273;BME280;63887;53.656;9.810;2023-03-25T06:15:27;99871.16;;;8.71;90.59
4273;BME280;63887;53.656;9.810;2023-03-25T06:17:58;99880.38;;;8.18;92.37
4273;BME280;63887;53.656;9.810;2023-03-25T06:20:25;99877.22;;;8.27;92.92
4273;BME280;63887;53.656;9.810;2023-03-25T06:22:52;99874.63;;;8.27;93.39
4273;BME280;63887;53.656;9.810;2023-03-25T06:25:20;99875.72;;;8.39;93.44
4273;BME280;63887;53.656;9.810;2023-03-25T06:27:48;99878.44;;;8.80;91.60
4273;BME280;63887;53.656;9.810;2023-03-25T06:30:16;99880.31;;;8.64;91.65
4273;BME280;63887;53.656;9.810;2023-03-25T06:32:43;99872.38;;;8.80;91.21
4273;BME280;63887;53.656;9.810;2023-03-25T06:35:14;99870.31;;;8.85;90.37
4273;BME280;63887;53.656;9.810;2023-03-25T06:37:44;99872.53;;;8.91;90.22
4273;BME280;63887;53.656;9.810;2023-03-25T06:40:12;99880.66;;;8.72;90.36
4273;BME280;63887;53.656;9.810;2023-03-25T06:42:40;99883.28;;;8.86;91.07
4273;BME280;63887;53.656;9.810;2023-03-25T06:45:08;99874.97;;;9.08;89.21
4273;BME280;63887;53.656;9.810;2023-03-25T06:47:34;99872.75;;;9.29;88.97
4273;BME280;63887;53.656;9.810;2023-03-25T06:50:01;99879.50;;;9.19;88.76
4273;BME280;63887;53.656;9.810;2023-03-25T06:52:27;99879.09;;;9.39;87.82
4273;BME280;63887;53.656;9.810;2023-03-25T06:54:54;99876.88;;;10.00;85.80
4273;BME280;63887;53.656;9.810;2023-03-25T06:57:20;99878.66;;;9.60;85.71
4273;BME280;63887;53.656;9.810;2023-03-25T06:59:48;99879.34;;;9.49;87.30
4273;BME280;63887;53.656;9.810;2023-03-25T07:02:15;99879.47;;;9.87;85.96
4273;BME280;63887;53.656;9.810;2023-03-25T07:04:41;99882.84;;;10.41;83.74
4273;BME280;63887;53.656;9.810;2023-03-25T07:07:08;99879.59;;;10.63;82.32
4273;BME280;63887;53.656;9.810;2023-03-25T07:09:35;99878.94;;;10.22;84.20
4273;BME280;63887;53.656;9.810;2023-03-25T07:12:01;99883.56;;;10.31;83.33
4273;BME280;63887;53.656;9.810;2023-03-25T07:14:28;99879.84;;;9.81;84.97
4273;BME280;63887;53.656;9.810;2023-03-25T07:16:56;99878.91;;;9.69;85.72
4273;BME280;63887;53.656;9.810;2023-03-25T07:19:22;99890.19;;;10.09;83.72
4273;BME280;63887;53.656;9.810;2023-03-25T07:21:49;99888.19;;;10.27;82.58
4273;BME280;63887;53.656;9.810;2023-03-25T07:24:15;99881.56;;;9.95;83.03
4273;BME280;63887;53.656;9.810;2023-03-25T07:26:41;99881.56;;;9.55;85.04
4273;BME280;63887;53.656;9.810;2023-03-25T07:29:08;99890.00;;;9.73;85.17
4273;BME280;63887;53.656;9.810;2023-03-25T07:31:34;99895.78;;;9.51;85.06
4273;BME280;63887;53.656;9.810;2023-03-25T07:34:02;99889.66;;;9.65;85.25
4273;BME280;63887;53.656;9.810;2023-03-25T07:36:29;99896.25;;;9.84;83.16
4273;BME280;63887;53.656;9.810;2023-03-25T07:38:56;99892.03;;;9.14;86.75
4273;BME280;63887;53.656;9.810;2023-03-25T07:41:22;99894.13;;;9.36;86.54
4273;BME280;63887;53.656;9.810;2023-03-25T07:43:49;99897.88;;;9.32;86.85
4273;BME280;63887;53.656;9.810;2023-03-25T07:46:15;99908.03;;;9.09;88.16
4273;BME280;63887;53.656;9.810;2023-03-25T07:48:41;99895.09;;;9.20;88.06
4273;BME280;63887;53.656;9.810;2023-03-25T07:51:09;99900.00;;;9.53;86.80
4273;BME280;63887;53.656;9.810;2023-03-25T07:53:36;99898.22;;;9.54;86.00
4273;BME280;63887;53.656;9.810;2023-03-25T07:56:07;99895.09;;;9.62;87.25
4273;BME280;63887;53.656;9.810;2023-03-25T07:58:33;99897.28;;;9.95;85.97
4273;BME280;63887;53.656;9.810;2023-03-25T08:01:00;99895.84;;;9.64;86.46
4273;BME280;63887;53.656;9.810;2023-03-25T08:03:26;99898.28;;;9.79;87.20
4273;BME280;63887;53.656;9.810;2023-03-25T08:05:53;99901.59;;;10.35;83.92
4273;BME280;63887;53.656;9.810;2023-03-25T08:08:21;99907.75;;;9.82;85.13
4273;BME280;63887;53.656;9.810;2023-03-25T08:10:49;99902.25;;;9.45;87.43
4273;BME280;63887;53.656;9.810;2023-03-25T08:13:16;99908.28;;;9.60;88.09
4273;BME280;63887;53.656;9.810;2023-03-25T08:15:42;99905.00;;;9.30;89.85
4273;BME280;63887;53.656;9.810;2023-03-25T08:18:09;99921.94;;;9.24;91.48
4273;BME280;63887;53.656;9.810;2023-03-25T08:20:35;99908.28;;;9.19;91.70
4273;BME280;63887;53.656;9.810;2023-03-25T08:23:02;99914.69;;;9.42;90.94
4273;BME280;63887;53.656;9.810;2023-03-25T08:25:30;99914.19;;;9.22;91.59
4273;BME280;63887;53.656;9.810;2023-03-25T08:27:56;99909.06;;;9.48;89.97
4273;BME280;63887;53.656;9.810;2023-03-25T08:30:23;99905.75;;;9.32;92.09
4273;BME280;63887;53.656;9.810;2023-03-25T08:32:49;99905.41;;;9.09;93.38
4273;BME280;63887;53.656;9.810;2023-03-25T08:35:19;99904.50;;;9.37;91.59
4273;BME280;63887;53.656;9.810;2023-03-25T08:37:45;99909.16;;;9.46;92.02
4273;BME280;63887;53.656;9.810;2023-03-25T08:40:12;99906.16;;;9.79;90.16
4273;BME280;63887;53.656;9.810;2023-03-25T08:42:42;99902.97;;;10.28;89.52
4273;BME280;63887;53.656;9.810;2023-03-25T08:45:10;99902.13;;;10.28;90.23
4273;BME280;63887;53.656;9.810;2023-03-25T08:47:36;99909.81;;;10.43;87.67
4273;BME280;63887;53.656;9.810;2023-03-25T08:50:03;99908.72;;;10.33;86.09
4273;BME280;63887;53.656;9.810;2023-03-25T08:52:30;99908.88;;;10.18;87.11
4273;BME280;63887;53.656;9.810;2023-03-25T08:54:56;99912.91;;;10.23;85.94
4273;BME280;63887;53.656;9.810;2023-03-25T08:57:23;99913.50;;;10.14;84.04
4273;BME280;63887;53.656;9.810;2023-03-25T08:59:51;99924.94;;;10.13;85.25
4273;BME280;63887;53.656;9.810;2023-03-25T09:02:17;99917.56;;;9.78;86.29
4273;BME280;63887;53.656;9.810;2023-03-25T09:04:46;99928.47;;;9.17;89.13
4273;BME280;63887;53.656;9.810;2023-03-25T09:07:13;99935.56;;;9.29;88.46
4273;BME280;63887;53.656;9.810;2023-03-25T09:09:40;99914.44;;;9.32;87.88
4273;BME280;63887;53.656;9.810;2023-03-25T09:12:06;99905.19;;;9.26;86.51
4273;BME280;63887;53.656;9.810;2023-03-25T09:14:33;99915.88;;;8.81;87.83
4273;BME280;63887;53.656;9.810;2023-03-25T09:17:01;99912.13;;;8.71;88.16
4273;BME280;63887;53.656;9.810;2023-03-25T09:19:30;99917.25;;;8.58;89.35
4273;BME280;63887;53.656;9.810;2023-03-25T09:21:56;99918.84;;;9.17;88.32
4273;BME280;63887;53.656;9.810;2023-03-25T09:24:23;99911.06;;;9.30;88.52
4273;BME280;63887;53.656;9.810;2023-03-25T09:26:49;99918.41;;;9.52;89.00
4273;BME280;63887;53.656;9.810;2023-03-25T09:29:15;99914.69;;;9.96;84.60
4273;BME280;63887;53.656;9.810;2023-03-25T09:31:42;99924.31;;;9.95;82.55
4273;BME280;63887;53.656;9.810;2023-03-25T09:34:10;99911.31;;;9.54;85.63
4273;BME280;63887;53.656;9.810;2023-03-25T09:36:36;99911.38;;;9.25;87.15
4273;BME280;63887;53.656;9.810;2023-03-25T09:39:03;99914.38;;;9.05;87.00
4273;BME280;63887;53.656;9.810;2023-03-25T09:41:42;99918.09;;;9.15;87.60
4273;BME280;63887;53.656;9.810;2023-03-25T09:44:15;99917.16;;;9.31;86.67
4273;BME280;63887;53.656;9.810;2023-03-25T09:46:45;99925.50;;;8.94;88.13
4273;BME280;63887;53.656;9.810;2023-03-25T09:49:17;99920.72;;;9.01;88.57
4273;BME280;63887;53.656;9.810;2023-03-25T09:51:47;99912.31;;;9.51;87.40
4273;BME280;63887;53.656;9.810;2023-03-25T09:54:21;99916.09;;;9.74;84.60
4273;BME280;63887;53.656;9.810;2023-03-25T09:56:48;99911.44;;;9.65;84.00
4273;BME280;63887;53.656;9.810;2023-03-25T09:59:18;99917.22;;;9.97;83.22
4273;BME280;63887;53.656;9.810;2023-03-25T10:01:48;99915.00;;;9.91;83.70
4273;BME280;63887;53.656;9.810;2023-03-25T10:07:33;99914.81;;;10.07;82.16
4273;BME280;63887;53.656;9.810;2023-03-25T10:10:10;99922.22;;;9.88;82.54
4273;BME280;63887;53.656;9.810;2023-03-25T10:12:43;99924.94;;;10.13;83.58
4273;BME280;63887;53.656;9.810;2023-03-25T10:15:27;99915.78;;;10.06;83.56
4273;BME280;63887;53.656;9.810;2023-03-25T10:18:07;99930.44;;;10.35;81.61
4273;BME280;63887;53.656;9.810;2023-03-25T10:20:43;99929.50;;;10.36;81.40
4273;BME280;63887;53.656;9.810;2023-03-25T10:23:20;99919.88;;;10.75;80.85
4273;BME280;63887;53.656;9.810;2023-03-25T10:25:52;99930.25;;;10.51;80.06
4273;BME280;63887;53.656;9.810;2023-03-25T10:28:26;99923.22;;;10.90;78.16
4273;BME280;63887;53.656;9.810;2023-03-25T10:30:53;99933.84;;;10.75;79.71
4273;BME280;63887;53.656;9.810;2023-03-25T10:33:24;99924.25;;;10.36;81.45
4273;BME280;63887;53.656;9.810;2023-03-25T10:35:55;99930.59;;;10.59;81.42
4273;BME280;63887;53.656;9.810;2023-03-25T10:38:25;99915.63;;;11.11;78.56
4273;BME280;63887;53.656;9.810;2023-03-25T10:41:01;99920.06;;;10.85;79.21
4273;BME280;63887;53.656;9.810;2023-03-25T10:43:30;99920.72;;;10.63;78.79
4273;BME280;63887;53.656;9.810;2023-03-25T10:46:02;99922.34;;;10.38;80.77
4273;BME280;63887;53.656;9.810;2023-03-25T10:48:31;99912.22;;;10.72;78.95
4273;BME280;63887;53.656;9.810;2023-03-25T10:51:02;99922.47;;;10.50;80.06
4273;BME280;63887;53.656;9.810;2023-03-25T10:53:31;99915.16;;;10.42;78.34
4273;BME280;63887;53.656;9.810;2023-03-25T10:56:02;99904.19;;;10.23;79.13
4273;BME280;63887;53.656;9.810;2023-03-25T10:58:30;99912.63;;;10.01;80.95
4273;BME280;63887;53.656;9.810;2023-03-25T11:00:58;99911.28;;;9.81;82.85
4273;BME280;63887;53.656;9.810;2023-03-25T11:03:28;99921.38;;;9.60;85.51
4273;BME280;63887;53.656;9.810;2023-03-25T11:05:55;99928.13;;;9.50;86.78
4273;BME280;63887;53.656;9.810;2023-03-25T11:08:22;99940.16;;;9.25;86.91
4273;BME280;63887;53.656;9.810;2023-03-25T11:10:51;99965.94;;;9.03;87.36
4273;BME280;63887;53.656;9.810;2023-03-25T11:13:23;99980.34;;;8.96;86.26
4273;BME280;63887;53.656;9.810;2023-03-25T11:15:52;99983.19;;;8.63;87.56
4273;BME280;63887;53.656;9.810;2023-03-25T11:18:21;99991.50;;;8.70;88.60
4273;BME280;63887;53.656;9.810;2023-03-25T11:20:51;100007.06;;;8.57;90.43
4273;BME280;63887;53.656;9.810;2023-03-25T11:23:23;99987.91;;;8.56;89.54
4273;BME280;63887;53.656;9.810;2023-03-25T11:25:53;99977.16;;;8.47;88.94
4273;BME280;63887;53.656;9.810;2023-03-25T11:28:25;99967.97;;;8.10;91.20
4273;BME280;63887;53.656;9.810;2023-03-25T11:31:11;99970.53;;;8.41;90.98
4273;BME280;63887;53.656;9.810;2023-03-25T11:33:40;99971.97;;;8.75;90.32
4273;BME280;63887;53.656;9.810;2023-03-25T11:36:12;99958.75;;;8.78;90.08
4273;BME280;63887;53.656;9.810;2023-03-25T11:38:51;99944.91;;;9.19;90.58
4273;BME280;63887;53.656;9.810;2023-03-25T11:41:19;99936.47;;;9.83;87.72
4273;BME280;63887;53.656;9.810;2023-03-25T11:43:47;99934.53;;;10.00;88.43
4273;BME280;63887;53.656;9.810;2023-03-25T11:46:16;99933.19;;;9.53;89.80
4273;BME280;63887;53.656;9.810;2023-03-25T11:48:44;99928.31;;;9.47;89.64
4273;BME280;63887;53.656;9.810;2023-03-25T11:51:13;99922.84;;;10.18;87.00
4273;BME280;63887;53.656;9.810;2023-03-25T11:53:44;99925.88;;;10.12;89.27
4273;BME280;63887;53.656;9.810;2023-03-25T11:56:15;99921.53;;;10.51;86.25
4273;BME280;63887;53.656;9.810;2023-03-25T11:58:46;99916.19;;;10.78;83.80
4273;BME280;63887;53.656;9.810;2023-03-25T12:01:21;99905.97;;;10.22;87.89
4273;BME280;63887;53.656;9.810;2023-03-25T12:03:50;99904.03;;;10.89;86.61
4273;BME280;63887;53.656;9.810;2023-03-25T12:06:18;99908.78;;;10.71;86.43
4273;BME280;63887;53.656;9.810;2023-03-25T12:08:48;99903.38;;;10.98;84.20
4273;BME280;63887;53.656;9.810;2023-03-25T12:11:17;99902.69;;;10.58;85.59
4273;BME280;63887;53.656;9.810;2023-03-25T12:14:11;99909.38;;;10.75;84.76
4273;BME280;63887;53.656;9.810;2023-03-25T12:16:47;99904.38;;;10.72;84.30
4273;BME280;63887;53.656;9.810;2023-03-25T12:19:21;99906.66;;;10.89;81.97
4273;BME280;63887;53.656;9.810;2023-03-25T12:22:03;99911.06;;;10.63;83.55
4273;BME280;63887;53.656;9.810;2023-03-25T12:24:49;99891.47;;;10.04;85.61
4273;BME280;63887;53.656;9.810;2023-03-25T12:27:29;99901.84;;;10.05;85.99
4273;BME280;63887;53.656;9.810;2023-03-25T12:30:11;99895.25;;;9.73;87.37
4273;BME280;63887;53.656;9.810;2023-03-25T12:32:49;99889.59;;;9.79;87.49
4273;BME280;63887;53.656;9.810;2023-03-25T12:35:26;99891.31;;;9.66;86.86
4273;BME280;63887;53.656;9.810;2023-03-25T12:38:13;99899.59;;;9.86;86.98
4273;BME280;63887;53.656;9.810;2023-03-25T12:40:53;99895.97;;;9.75;88.41
4273;BME280;63887;53.656;9.810;2023-03-25T12:43:29;99895.63;;;9.67;89.18
4273;BME280;63887;53.656;9.810;2023-03-25T12:46:14;99898.59;;;9.75;87.56
4273;BME280;63887;53.656;9.810;2023-03-25T12:48:52;99895.81;;;9.37;88.98
4273;BME280;63887;53.656;9.810;2023-03-25T12:51:36;99894.91;;;9.38;90.45
4273;BME280;63887;53.656;9.810;2023-03-25T12:54:15;99893.94;;;9.66;89.20
4273;BME280;63887;53.656;9.810;2023-03-25T12:56:51;99880.69;;;9.69;86.44
4273;BME280;63887;53.656;9.810;2023-03-25T12:59:34;99899.81;;;9.83;87.01
4273;BME280;63887;53.656;9.810;2023-03-25T13:02:16;99916.28;;;9.98;85.10
4273;BME280;63887;53.656;9.810;2023-03-25T13:05:03;99908.59;;;9.82;84.00
4273;BME280;63887;53.656;9.810;2023-03-25T13:07:33;99897.97;;;9.71;82.81
4273;BME280;63887;53.656;9.810;2023-03-25T13:10:04;99903.19;;;9.44;84.50
4273;BME280;63887;53.656;9.810;2023-03-25T13:12:36;99913.53;;;8.76;89.45
4273;BME280;63887;53.656;9.810;2023-03-25T13:15:06;99913.81;;;8.57;90.02
4273;BME280;63887;53.656;9.810;2023-03-25T13:17:43;99918.94;;;8.87;90.42
4273;BME280;63887;53.656;9.810;2023-03-25T13:20:11;99930.75;;;8.94;90.69
4273;BME280;63887;53.656;9.810;2023-03-25T13:22:39;99941.66;;;9.01;90.52
4273;BME280;63887;53.656;9.810;2023-03-25T13:25:17;99931.63;;;9.22;87.35
4273;BME280;63887;53.656;9.810;2023-03-25T13:27:45;99935.88;;;8.82;89.04
4273;BME280;63887;53.656;9.810;2023-03-25T13:30:16;99933.50;;;8.49;89.37
4273;BME280;63887;53.656;9.810;2023-03-25T13:32:48;99932.22;;;8.70;89.69
4273;BME280;63887;53.656;9.810;2023-03-25T13:35:19;99925.41;;;8.96;89.96
4273;BME280;63887;53.656;9.810;2023-03-25T13:37:49;99913.59;;;9.32;89.06
4273;BME280;63887;53.656;9.810;2023-03-25T13:40:25;99913.03;;;9.41;87.85
4273;BME280;63887;53.656;9.810;2023-03-25T13:42:57;99918.59;;;9.49;88.53
4273;BME280;63887;53.656;9.810;2023-03-25T13:45:24;99920.53;;;9.86;86.34
4273;BME280;63887;53.656;9.810;2023-03-25T13:48:01;99917.97;;;9.99;86.69